Glade Spring, Virginia
Current Conditions -  °F | °C
As of 1:15 PM on Sunday 25 Jan 2015 (Local Time) from KVJI Reporting Station
Clear Clear  
Wind Chill: 49°   Ceiling: Unl
Heat Index: 49°   Visibility: 10mi
Dew Point: 30°   Wind: 0mph
Humidity: 48%   Direction: NA
Pressure: 29.76"   Gusts: NA
Location:  36.79°N, 81.77°W
Report Text: KVJI 251815Z AUTO 00000KT 10SM CLR 10/M01 A2976 RMK AO2 T00951010
Loading
Personal Weather Stations






























Interactive Weather Map New forecast layout! Learn more

10-Day Weather Forecast

Advertisements
Track Severe Weather on mobile